Map

Track Data

SID SEASON NUMBER BASIN SUBBASIN NAME ISO_TIME NATURE LAT LON WMO_WIND WMO_PRES WMO_AGENCY TRACK_TYPE DIST2LAND LANDFALL IFLAG USA_AGENCY USA_ATCF_ID USA_LAT USA_LON USA_RECORD USA_STATUS USA_WIND USA_PRES USA_SSHS USA_R34_NE USA_R34_SE USA_R34_SW USA_R34_NW USA_R50_NE USA_R50_SE USA_R50_SW USA_R50_NW USA_R64_NE USA_R64_SE USA_R64_SW USA_R64_NW USA_POCI USA_ROCI USA_RMW USA_EYE TOKYO_LAT TOKYO_LON TOKYO_GRADE TOKYO_WIND TOKYO_PRES TOKYO_R50_DIR TOKYO_R50_LONG TOKYO_R50_SHORT TOKYO_R30_DIR TOKYO_R30_LONG TOKYO_R30_SHORT TOKYO_LAND CMA_LAT CMA_LON CMA_CAT CMA_WIND CMA_PRES HKO_LAT HKO_LON HKO_CAT HKO_WIND HKO_PRES NEWDELHI_LAT NEWDELHI_LON NEWDELHI_GRADE NEWDELHI_WIND NEWDELHI_PRES NEWDELHI_CI NEWDELHI_DP NEWDELHI_POCI REUNION_LAT REUNION_LON REUNION_TYPE REUNION_WIND REUNION_PRES REUNION_TNUM REUNION_CI REUNION_RMW REUNION_R34_NE REUNION_R34_SE REUNION_R34_SW REUNION_R34_NW REUNION_R50_NE REUNION_R50_SE REUNION_R50_SW REUNION_R50_NW REUNION_R64_NE REUNION_R64_SE REUNION_R64_SW REUNION_R64_NW BOM_LAT BOM_LON BOM_TYPE BOM_WIND BOM_PRES BOM_TNUM BOM_CI BOM_RMW BOM_R34_NE BOM_R34_SE BOM_R34_SW BOM_R34_NW BOM_R50_NE BOM_R50_SE BOM_R50_SW BOM_R50_NW BOM_R64_NE BOM_R64_SE BOM_R64_SW BOM_R64_NW BOM_ROCI BOM_POCI BOM_EYE BOM_POS_METHOD BOM_PRES_METHOD NADI_LAT NADI_LON NADI_CAT NADI_WIND NADI_PRES WELLINGTON_LAT WELLINGTON_LON WELLINGTON_WIND WELLINGTON_PRES DS824_LAT DS824_LON DS824_STAGE DS824_WIND DS824_PRES TD9636_LAT TD9636_LON TD9636_STAGE TD9636_WIND TD9636_PRES TD9635_LAT TD9635_LON TD9635_WIND TD9635_PRES TD9635_ROCI NEUMANN_LAT NEUMANN_LON NEUMANN_CLASS NEUMANN_WIND NEUMANN_PRES MLC_LAT MLC_LON MLC_CLASS MLC_WIND MLC_PRES USA_GUST BOM_GUST BOM_GUST_PER REUNION_GUST REUNION_GUST_PER USA_SEAHGT USA_SEARAD_NE USA_SEARAD_SE USA_SEARAD_SW USA_SEARAD_NW STORM_SPEED STORM_DIR
1997143N17111 1997 31 WP MM LEVI 1997-05-23 00:00:00 NR 16.8000 111.000 main 208 208 O_____________ jtwc_wp WP051997 16.8000 111.000 15 -1 7 90
1997143N17111 1997 31 WP MM LEVI 1997-05-23 03:00:00 NR 16.8001 111.340 main 225 225 P_____________ WP051997 16.8001 111.340 15 -1 7 90
1997143N17111 1997 31 WP MM LEVI 1997-05-23 06:00:00 NR 16.8000 111.700 main 253 253 O_____________ jtwc_wp WP051997 16.8000 111.700 15 -1 7 90
1997143N17111 1997 31 WP MM LEVI 1997-05-23 09:00:00 NR 16.8000 112.093 main 278 278 P_____________ WP051997 16.8000 112.093 15 -1 8 90
1997143N17111 1997 31 WP MM LEVI 1997-05-23 12:00:00 NR 16.8000 112.500 main 307 307 O_____________ jtwc_wp WP051997 16.8000 112.500 15 -1 8 90
1997143N17111 1997 31 WP MM LEVI 1997-05-23 15:00:00 NR 16.7999 112.900 main 338 338 P_____________ WP051997 16.7999 112.900 15 -1 8 90
1997143N17111 1997 31 WP MM LEVI 1997-05-23 18:00:00 NR 16.8000 113.300 main 371 371 O_____________ jtwc_wp WP051997 16.8000 113.300 15 -1 8 90
1997143N17111 1997 31 WP MM LEVI 1997-05-23 21:00:00 NR 16.7999 113.700 main 406 406 P_____________ WP051997 16.7999 113.700 15 -1 8 90
1997143N17111 1997 31 WP MM LEVI 1997-05-24 00:00:00 NR 16.8000 114.100 main 442 442 O_____________ jtwc_wp WP051997 16.8000 114.100 15 -1 8 90
1997143N17111 1997 31 WP MM LEVI 1997-05-24 03:00:00 NR 16.7999 114.500 main 479 479 P_____________ WP051997 16.7999 114.500 15 -1 8 90
1997143N17111 1997 31 WP MM LEVI 1997-05-24 06:00:00 NR 16.8000 114.900 main 516 477 O_____________ jtwc_wp WP051997 16.8000 114.900 15 -1 8 90
1997143N17111 1997 31 WP MM LEVI 1997-05-24 09:00:00 NR 16.7999 115.300 main 477 436 P_____________ WP051997 16.7999 115.300 15 -1 8 90
1997143N17111 1997 31 WP MM LEVI 1997-05-24 12:00:00 NR 16.8000 115.700 main 436 394 O_____________ jtwc_wp WP051997 16.8000 115.700 15 -1 8 90
1997143N17111 1997 31 WP MM LEVI 1997-05-24 15:00:00 NR 16.8000 116.108 main 394 352 P_____________ WP051997 16.8000 116.108 15 -1 8 90
1997143N17111 1997 31 WP MM LEVI 1997-05-24 18:00:00 NR 16.8000 116.500 main 352 322 O_____________ jtwc_wp WP051997 16.8000 116.500 15 -1 7 90
1997143N17111 1997 31 WP MM LEVI 1997-05-24 21:00:00 NR 16.7999 116.857 main 311 281 P_____________ WP051997 16.7999 116.857 17 -1 7 90
1997143N17111 1997 31 WP MM LEVI 1997-05-25 00:00:00 NR 16.8000 117.200 main 281 251 O_____________ jtwc_wp WP051997 16.8000 117.200 20 -1 7 90
1997143N17111 1997 31 WP MM LEVI 1997-05-25 03:00:00 NR 16.7999 117.550 main 241 210 P_____________ WP051997 16.7999 117.550 20 -1 7 90
1997143N17111 1997 31 WP MM LEVI 1997-05-25 06:00:00 NR 16.8000 117.900 main 210 179 O_____________ jtwc_wp WP051997 16.8000 117.900 20 -1 7 89
1997143N17111 1997 31 WP MM LEVI 1997-05-25 09:00:00 NR 16.8149 118.250 main 179 139 P_____________ WP051997 16.8149 118.250 20 -1 7 90
1997143N17111 1997 31 WP MM LEVI 1997-05-25 12:00:00 NR 16.8000 118.600 main 139 105 O_____________ jtwc_wp WP051997 16.8000 118.600 20 -1 7 99
1997143N17111 1997 31 WP MM LEVI 1997-05-25 15:00:00 NR 16.7074 118.950 main 96 88 P_____________ WP051997 16.7074 118.950 22 -1 5 122
1997143N17111 1997 31 WP MM LEVI 1997-05-25 18:00:00 NR 16.5400 119.040 main 88 57 O__O__________ jtwc_wp WP051997 16.6000 119.300 25 -1 16.3000 118.000 TD 25 1002 4 126
1997143N17111 1997 31 WP MM LEVI 1997-05-25 21:00:00 NR 16.4667 119.301 main 57 24 P__P__________ WP051997 16.5424 119.635 25 -1 16.3153 118.632 TD 25 1001 6 105
1997143N17111 1997 31 WP MM LEVI 1997-05-26 00:00:00 TS 16.3889 119.611 1002 tokyo main 24 0 OOOO__________ jtwc_wp WP051997 16.5000 120.000 25 -1 16.3000 119.300 2 1002 0 0 0 16.3000 119.300 1 23 1002 16.3000 119.300 TD 25 1000 8 100
1997143N17111 1997 31 WP MM LEVI 1997-05-26 03:00:00 TS 16.3272 120.152 main 21 0 PPPP__________ WP051997 16.4348 120.405 25 -1 16.3031 120.022 2 1002 0 0 16.3056 120.022 1 23 1001 16.2423 120.028 TD 25 1000 11 95
1997143N17111 1997 31 WP MM LEVI 1997-05-26 06:00:00 TS 16.3000 120.786 1002 tokyo main 0 0 OOOO__________ jtwc_wp WP051997 16.4000 120.900 25 -1 16.3000 120.700 2 1002 0 0 0 16.3000 120.700 1 23 1000 16.2000 120.800 TD 25 1000 12 91
1997143N17111 1997 31 WP MM LEVI 1997-05-26 09:00:00 TS 16.2967 121.438 main 0 0 PPPP__________ WP051997 16.4050 121.513 25 -1 16.2921 121.308 2 1002 0 0 16.2846 121.308 1 23 1000 16.2051 121.623 TD 25 1000 13 88
1997143N17111 1997 31 WP MM LEVI 1997-05-26 12:00:00 TS 16.3500 122.100 1002 tokyo main 0 0 OOOO__________ jtwc_wp WP051997 16.5000 122.200 25 -1 16.3000 121.900 2 1002 0 0 0 16.3000 121.900 1 23 1000 16.3000 122.400 TD 25 1000 13 82
1997143N17111 1997 31 WP MM LEVI 1997-05-26 15:00:00 TS 16.4824 122.765 main 54 54 PPPP__________ WP051997 16.7126 122.915 25 -1 16.3274 122.550 2 1002 0 0 16.3774 122.550 1 23 1000 16.5122 123.045 TD 25 1000 13 75
1997143N17111 1997 31 WP MM LEVI 1997-05-26 18:00:00 TS 16.6750 123.400 1002 tokyo main 98 98 OOOO__________ jtwc_wp WP051997 17.0000 123.600 25 -1 16.4000 123.200 2 1002 0 0 0 16.5000 123.200 1 23 1000 16.8000 123.600 TD 25 1000 12 72
1997143N17111 1997 31 WP MM LEVI 1997-05-26 21:00:00 TS 16.8755 123.996 main 159 159 PPPP__________ WP051997 17.2924 124.203 25 -1 16.5124 123.823 2 1001 0 0 16.5974 123.823 1 26 1000 17.0999 124.137 TD 25 1000 12 67
1997143N17111 1997 31 WP MM LEVI 1997-05-27 00:00:00 TS 17.1250 124.525 1000 tokyo main 212 212 OOOO__________ jtwc_wp WP051997 17.6000 124.700 25 -1 16.7000 124.400 2 1000 0 0 0 16.8000 124.400 1 29 1000 17.4000 124.600 TD 25 1000 11 59
1997143N17111 1997 31 WP MM LEVI 1997-05-27 03:00:00 TS 17.4386 124.993 main 269 269 PPPP__________ WP051997 17.9073 125.103 27 -1 16.9625 124.945 2 1000 0 0 17.2274 124.937 1 29 1000 17.6574 124.988 TD 27 999 10 51
1997143N17111 1997 31 WP MM LEVI 1997-05-27 06:00:00 TS 17.7750 125.375 1000 tokyo main 320 320 OOOO__________ jtwc_wp WP051997 18.2000 125.400 30 -1 17.3000 125.400 2 1000 0 0 0 17.7000 125.400 1 29 1000 17.9000 125.300 TD 30 998 9 47
1997143N17111 1997 31 WP MM LEVI 1997-05-27 09:00:00 TS 18.0637 125.691 main 359 359 PPPP__________ WP051997 18.4424 125.638 32 -1 17.6699 125.753 2 998 0 0 18.0074 125.810 1 29 1000 18.1349 125.565 TD 32 997 8 41
1997143N17111 1997 31 WP MM LEVI 1997-05-27 12:00:00 TS 18.3750 125.925 996 tokyo main 379 379 OOOO__________ jtwc_wp WP051997 18.7000 125.800 35 0 18.1000 126.000 2 996 0 0 0 18.3000 126.100 1 29 1000 18.4000 125.800 TS 35 996 8 30
1997143N17111 1997 31 WP MM LEVI 1997-05-27 15:00:00 TS 18.7543 126.105 main 402 402 PPPP__________ WP051997 19.0275 125.923 35 0 18.5924 126.188 2 996 0 0 18.6774 126.245 1 29 1000 18.7200 126.065 TS 35 996 9 20
1997143N17111 1997 31 WP MM LEVI 1997-05-27 18:00:00 TS 19.1750 126.225 996 tokyo main 420 420 OOOO__________ jtwc_wp WP051997 19.4000 126.000 35 0 19.1000 126.300 2 996 0 0 0 19.1000 126.300 1 29 1000 19.1000 126.300 TS 35 996 9 13
1997143N17111 1997 31 WP MM LEVI 1997-05-27 21:00:00 TS 19.6068 126.311 main 441 441 PPPP__________ WP051997 19.7850 126.058 35 0 19.5650 126.365 2 995 0 0 19.5425 126.358 1 31 999 19.5349 126.465 TS 35 996 9 9
1997143N17111 1997 31 WP MM LEVI 1997-05-28 00:00:00 TS 20.0500 126.375 35 994 tokyo main 470 466 OOOO__________ jtwc_wp WP051997 20.2000 126.100 35 0 20.0000 126.400 3 35 994 0 9 160 160 0 20.0000 126.400 2 34 998 20.0000 126.600 TS 35 996 9 8
1997143N17111 1997 31 WP MM LEVI 1997-05-28 03:00:00 TS 20.4875 126.446 main 489 489 PPPP__________ WP051997 20.6425 126.150 37 0 20.4000 126.450 3 35 994 0 9 160 160 20.4575 126.428 2 34 998 20.4500 126.758 TS 37 994 9 9
1997143N17111 1997 31 WP MM LEVI 1997-05-28 06:00:00 TS 20.9250 126.525 35 994 tokyo main 521 521 OOOO__________ jtwc_wp WP051997 21.1000 126.200 40 0 20.8000 126.500 3 35 994 0 9 160 160 0 20.9000 126.500 2 34 998 20.9000 126.900 TS 40 992 9 10
1997143N17111 1997 31 WP MM LEVI 1997-05-28 09:00:00 TS 21.3493 126.610 main 554 554 PPPP__________ WP051997 21.5350 126.235 42 0 21.2200 126.550 3 37 993 0 9 180 180 21.2999 126.655 2 34 996 21.3425 127.000 TS 40 992 9 12
1997143N17111 1997 31 WP MM LEVI 1997-05-28 12:00:00 TS 21.8000 126.725 40 992 tokyo main 563 560 OOOO__________ jtwc_wp WP051997 22.0000 126.300 45 0 21.7000 126.600 3 40 992 0 9 200 200 0 21.7000 126.900 2 34 995 21.8000 127.100 TS 40 992 10 16
1997143N17111 1997 31 WP MM LEVI 1997-05-28 15:00:00 TS 22.3007 126.896 main 566 556 PPPP__________ WP051997 22.5424 126.405 45 0 22.2849 126.620 3 40 992 0 9 200 200 22.1053 127.309 2 34 995 22.2700 127.250 TS 40 992 11 17
1997143N17111 1997 31 WP MM LEVI 1997-05-28 18:00:00 TS 22.8500 127.075 40 992 tokyo main 558 542 OOOO__________ jtwc_wp WP051997 23.1000 126.600 45 0 22.9000 126.700 3 40 992 0 9 200 200 0 22.6000 127.600 2 34 995 22.8000 127.400 TS 40 992 12 11
1997143N17111 1997 31 WP MM LEVI 1997-05-28 21:00:00 TS 23.4484 127.139 main 542 539 PPPP__________ WP051997 23.5997 126.876 45 0 23.4668 126.852 3 37 993 0 9 180 180 23.2849 127.365 2 34 996 23.4423 127.463 TS 37 994 12 10
1997143N17111 1997 31 WP MM LEVI 1997-05-29 00:00:00 TS 24.0467 127.307 35 994 tokyo main 547 545 OOOO__________ jtwc_wp WP051997 24.1000 127.300 45 0 24.0000 127.200 3 35 994 0 9 160 160 0 24.0000 127.200 2 34 998 24.1000 127.600 TS 35 996 13 28
1997143N17111 1997 31 WP MM LEVI 1997-05-29 03:00:00 TS 24.5889 127.796 35 994 tokyo main 586 586 POPP__________ WP051997 24.6497 127.868 45 0 24.5000 127.800 3 35 994 0 9 160 160 0 24.5726 127.649 2 34 998 24.6780 127.936 TS 35 996 15 45
1997143N17111 1997 31 WP MM LEVI 1997-05-29 06:00:00 TS 25.1077 128.462 35 994 tokyo main 654 620 OOOO__________ jtwc_wp WP051997 25.2000 128.600 45 0 25.0000 128.400 3 35 994 0 9 160 160 0 25.1000 128.400 2 34 998 25.2000 128.400 TS 35 996 17 51
1997143N17111 1997 31 WP MM LEVI 1997-05-29 09:00:00 TS 25.6472 129.258 996 tokyo main 618 539 POP___________ WP051997 25.6995 129.434 45 0 25.6000 129.200 2 996 0 0 0 25.6420 129.141 2 31 998 TS 19 54
1997143N17111 1997 31 WP MM LEVI 1997-05-29 12:00:00 TS 26.2000 130.133 996 tokyo main 539 469 OOO___________ jtwc_wp WP051997 26.2000 130.400 45 0 26.2000 130.000 2 996 0 0 0 26.2000 130.000 1 29 998 20 55
1997143N17111 1997 31 WP MM LEVI 1997-05-29 15:00:00 TS 26.7870 131.100 main 470 431 PPP___________ WP051997 26.7416 131.441 45 0 26.8128 130.926 2 996 0 0 26.8065 130.933 1 29 998 22 58
1997143N17111 1997 31 WP MM LEVI 1997-05-29 18:00:00 TS 27.3667 132.200 996 tokyo main 427 421 OOO___________ jtwc_wp WP051997 27.3000 132.600 45 0 27.4000 132.000 2 996 0 0 0 27.4000 132.000 1 29 998 24 61
1997143N17111 1997 31 WP MM LEVI 1997-05-29 21:00:00 TS 27.9103 133.422 main 433 433 PPP___________ WP051997 27.8575 133.885 42 0 27.9367 133.191 2 997 0 0 27.9367 133.191 1 29 998 25 65
1997143N17111 1997 31 WP MM LEVI 1997-05-30 00:00:00 TS 28.4000 134.733 998 tokyo main 461 461 OOO___________ jtwc_wp WP051997 28.4000 135.200 40 0 28.4000 134.500 2 998 0 0 0 28.4000 134.500 1 29 998 25 69
1997143N17111 1997 31 WP MM LEVI 1997-05-30 03:00:00 TS 28.8203 136.108 main 513 489 PPP___________ WP051997 28.9292 136.445 40 0 28.7659 135.939 2 998 0 0 28.7659 135.939 1 31 998 25 71
1997143N17111 1997 31 WP MM LEVI 1997-05-30 06:00:00 TS 29.2000 137.400 998 tokyo main 492 484 OOO___________ jtwc_wp WP051997 29.4000 137.600 40 0 29.1000 137.300 2 998 0 0 0 29.1000 137.300 2 34 998 22 70
1997143N17111 1997 31 WP MM LEVI 1997-05-30 09:00:00 TS 29.5894 138.481 main 494 490 PPP___________ WP051997 29.7869 138.676 37 0 29.4907 138.383 2 999 0 0 29.4907 138.383 2 36 996 19 66
1997143N17111 1997 31 WP MM LEVI 1997-05-30 12:00:00 TS 29.9667 139.400 1000 tokyo main 509 494 OOO___________ jtwc_wp WP051997 30.1000 139.600 35 0 29.9000 139.300 2 1000 0 0 0 29.9000 139.300 2 38 995 17 64
1997143N17111 1997 31 WP MM LEVI 1997-05-30 15:00:00 TS 30.3207 140.236 main 497 483 PPP___________ WP051997 30.3790 140.361 32 -1 30.2915 140.174 2 1000 0 0 30.2915 140.174 2 36 996 15 63
1997143N17111 1997 31 WP MM LEVI 1997-05-30 18:00:00 TS 30.6667 141.000 1000 tokyo main 479 462 OOO___________ jtwc_wp WP051997 30.6000 141.000 30 -1 30.7000 141.000 2 1000 0 0 0 30.7000 141.000 2 34 998 15 62
1997143N17111 1997 31 WP MM LEVI 1997-05-30 21:00:00 TS 31.0179 141.738 main 466 456 PPP___________ WP051997 30.7565 141.586 27 -1 31.1486 141.813 2 1000 0 0 31.1486 141.813 2 34 998 15 62
1997143N17111 1997 31 WP MM LEVI 1997-05-31 00:00:00 MX 31.3667 142.533 1000 tokyo main 458 458 OOO___________ jtwc_wp WP051997 30.9000 142.200 25 -1 31.6000 142.700 6 1000 0 0 0 31.6000 142.700 2 34 998 17 65
1997143N17111 1997 31 WP MM LEVI 1997-05-31 03:00:00 MX 31.7102 143.508 main 484 484 PPP___________ WP051997 31.1000 142.970 25 -1 32.0153 143.778 6 999 0 0 32.0153 143.778 2 34 998 18 69
1997143N17111 1997 31 WP MM LEVI 1997-05-31 06:00:00 MX 32.0333 144.533 998 tokyo main 520 519 OOO___________ jtwc_wp WP051997 31.3000 143.800 25 -1 32.4000 144.900 6 998 0 0 0 32.4000 144.900 2 34 998 18 70
1997143N17111 1997 31 WP MM LEVI 1997-05-31 09:00:00 MX 32.3202 145.455 main 567 567 PPP___________ WP051997 31.4491 144.578 25 -1 32.7558 145.894 6 997 0 0 32.7558 145.894 2 34 998 16 71
1997143N17111 1997 31 WP MM LEVI 1997-05-31 12:00:00 MX 32.5545 146.355 996 tokyo main 611 611 OOO___________ jtwc_wp WP051997 31.6000 145.400 25 -1 33.1000 146.900 6 996 0 0 0 33.1000 146.900 2 34 998 17 73
1997143N17111 1997 31 WP MM LEVI 1997-05-31 15:00:00 MX 32.8021 147.356 main 677 677 PPP___________ WP051997 31.7842 146.306 25 -1 33.4958 148.079 6 996 0 0 33.4504 148.013 2 34 998 17 75
1997143N17111 1997 31 WP MM LEVI 1997-05-31 18:00:00 MX 33.0000 148.356 996 tokyo main 749 749 OOO___________ jtwc_wp WP051997 32.0000 147.300 25 -1 33.8000 149.200 6 996 0 0 0 33.8000 149.200 2 34 998 16 80
1997143N17111 1997 31 WP MM LEVI 1997-05-31 21:00:00 ET 33.0710 149.197 main 812 812 PP____________ WP051997 32.2494 148.370 25 -1 33.8927 150.024 6 996 0 0 2 15 82
1997143N17111 1997 31 WP MM LEVI 1997-06-01 00:00:00 ET 33.2000 150.150 996 tokyo main 894 886 OO____________ jtwc_wp WP051997 32.5000 149.500 25 -1 33.9000 150.800 6 996 0 0 0 17 81
1997143N17111 1997 31 WP MM LEVI 1997-06-01 03:00:00 ET 33.3388 151.180 main 978 978 PP____________ WP051997 32.7208 150.613 25 -1 33.9568 151.747 6 996 0 0 18 82
1997143N17111 1997 31 WP MM LEVI 1997-06-01 06:00:00 ET 33.4500 152.300 996 tokyo main 1068 1068 OO____________ jtwc_wp WP051997 32.9000 151.800 25 -1 34.0000 152.800 6 996 0 0 0 19 85
1997143N17111 1997 31 WP MM LEVI 1997-06-01 09:00:00 ET 33.5122 153.457 main 1175 1175 PP____________ WP051997 33.0209 153.091 27 -1 34.0034 153.823 6 996 0 0 21 87
1997143N17111 1997 31 WP MM LEVI 1997-06-01 12:00:00 ET 33.5500 154.800 996 tokyo main 1288 1291 OO____________ jtwc_wp WP051997 33.1000 154.500 30 -1 34.0000 155.100 6 996 0 0 0 25 88
1997143N17111 1997 31 WP MM LEVI 1997-06-01 15:00:00 ET 33.5795 156.444 main 1425 1425 PP____________ WP051997 33.1555 155.991 30 -1 34.0036 156.898 6 996 0 0 28 89
1997143N17111 1997 31 WP MM LEVI 1997-06-01 18:00:00 ET 33.6000 158.200 996 tokyo main 1518 1518 OO____________ jtwc_wp WP051997 33.2000 157.600 30 -1 34.0000 158.800 6 996 0 0 0 28 89
1997143N17111 1997 31 WP MM LEVI 1997-06-01 21:00:00 ET 33.6177 159.810 main 1587 1587 PP____________ WP051997 33.2406 159.306 30 -1 33.9947 160.315 6 997 0 0 27 89
1997143N17111 1997 31 WP MM LEVI 1997-06-02 00:00:00 ET 33.6500 161.450 998 tokyo main 1660 1660 OO____________ jtwc_wp WP051997 33.3000 161.100 30 -1 34.0000 161.800 6 998 0 0 0 28 89
1997143N17111 1997 31 WP MM LEVI 1997-06-02 03:00:00 ET 33.6779 163.184 main 1750 1750 PP____________ WP051997 33.3595 162.915 32 -1 33.9963 163.453 6 998 0 0 30 88
1997143N17111 1997 31 WP MM LEVI 1997-06-02 06:00:00 ET 33.7500 165.050 998 tokyo main 1845 1845 OO____________ jtwc_wp WP051997 33.5000 164.800 35 0 34.0000 165.300 6 998 0 0 0 33 87
1997143N17111 1997 31 WP MM LEVI 1997-06-02 09:00:00 ET 33.8592 167.126 main 1954 1954 PP____________ WP051997 33.7593 166.755 35 0 33.9591 167.497 6 1000 0 0 35 85
1997143N17111 1997 31 WP MM LEVI 1997-06-02 12:00:00 ET 34.0500 169.200 1002 tokyo main 2070 2076 OO____________ jtwc_wp WP051997 34.1000 168.800 35 0 34.0000 169.600 6 1002 0 0 0 32 82
1997143N17111 1997 31 WP MM LEVI 1997-06-02 15:00:00 ET 34.3152 170.973 main 2150 2149 PP____________ WP051997 34.4238 170.908 40 0 34.2067 171.038 6 1004 0 0 30 78
1997143N17111 1997 31 WP MM LEVI 1997-06-02 18:00:00 ET 34.7000 172.800 1006 tokyo main 2198 2198 OO____________ jtwc_wp WP051997 34.8000 173.100 45 0 34.6000 172.500 6 1006 0 0 0 34 77
1997143N17111 1997 31 WP MM LEVI 1997-06-02 21:00:00 ET 35.0814 174.976 main 2276 2194 PP____________ WP051997 35.2223 175.343 42 0 34.9404 174.609 6 1006 0 0 39 75
1997143N17111 1997 31 WP MM LEVI 1997-06-03 00:00:00 ET 35.7000 177.400 1006 tokyo main 2190 2022 OO____________ jtwc_wp WP051997 35.7000 177.700 40 0 35.7000 177.000 6 1006 0 0 0 43 70
1997143N17111 1997 31 WP MM LEVI 1997-06-03 03:00:00 ET 36.5174 179.947 main 2019 1866 PP____________ WP051997 36.1806 -179.806 40 0 37.1910 179.453 6 1006 0 0 45 71
1997143N17111 1997 31 EP CP LEVI 1997-06-03 06:00:00 ET 37.1800 182.640 main 1864 1801 OO____________ jtwc_wp WP051997 36.7000 -177.200 40 0 39.1000 182.000 6 1006 0 0 0 45 81
1997143N17111 1997 31 EP CP LEVI 1997-06-03 09:00:00 NR 37.2365 185.459 main 1797 1694 P_____________ WP051997 37.2365 -174.541 40 0 6 0 0 45 82
1997143N17111 1997 31 EP CP LEVI 1997-06-03 12:00:00 NR 37.8000 188.200 main 1692 1622 O_____________ jtwc_wp WP051997 37.8000 -171.800 40 0 45 76
1997143N17111 1997 31 EP CP LEVI 1997-06-03 15:00:00 NR 38.3438 191.017 main 1622 1567 P_____________ WP051997 38.3438 -168.983 37 0 46 76
1997143N17111 1997 31 EP CP LEVI 1997-06-03 18:00:00 NR 38.9000 193.900 main 1568 1548 O_____________ jtwc_wp WP051997 38.9000 -166.100 35 0 46 76
1997143N17111 1997 31 EP CP LEVI 1997-06-03 21:00:00 NR 39.4648 196.827 main 1548 1548 P_____________ WP051997 39.4648 -163.173 35 0 47 76
1997143N17111 1997 31 EP CP LEVI 1997-06-04 00:00:00 NR 40.0000 199.800 main 1568 O_____________ jtwc_wp WP051997 40.0000 -160.200 35 0 47 77

Digital Typhoon Data and Search

About IBTrACS Database

This database is a web-friendly format of International Best Track Archive for Climate Stewardship (IBTrACS), a global best track data archive curated by NOAA dating back to 1842.

Updated: 2021-10-19